sensor_id;sensor_type;location;lat;lon;timestamp;pressure;altitude;pressure_sealevel;temperature;humidity
63493;BME280;49638;47.526;10.028;2023-02-22T00:00:41;91525.22;;;3.95;64.80
63493;BME280;49638;47.526;10.028;2023-02-22T00:03:42;91523.16;;;4.04;64.55
63493;BME280;49638;47.526;10.028;2023-02-22T00:06:42;91519.94;;;4.09;64.27
63493;BME280;49638;47.526;10.028;2023-02-22T00:09:44;91517.50;;;4.07;64.42
63493;BME280;49638;47.526;10.028;2023-02-22T00:12:47;91518.75;;;4.05;64.80
63493;BME280;49638;47.526;10.028;2023-02-22T00:15:48;91521.38;;;3.98;65.54
63493;BME280;49638;47.526;10.028;2023-02-22T00:18:48;91526.44;;;3.86;66.03
63493;BME280;49638;47.526;10.028;2023-02-22T00:21:52;91530.88;;;3.86;65.04
63493;BME280;49638;47.526;10.028;2023-02-22T00:24:52;91527.03;;;3.95;64.38
63493;BME280;49638;47.526;10.028;2023-02-22T00:27:52;91533.41;;;4.06;63.96
63493;BME280;49638;47.526;10.028;2023-02-22T00:30:53;91526.56;;;4.11;62.86
63493;BME280;49638;47.526;10.028;2023-02-22T00:33:53;91536.00;;;4.12;63.67
63493;BME280;49638;47.526;10.028;2023-02-22T00:36:54;91531.78;;;4.11;62.52
63493;BME280;49638;47.526;10.028;2023-02-22T00:39:54;91531.59;;;4.06;64.89
63493;BME280;49638;47.526;10.028;2023-02-22T00:42:54;91525.19;;;4.02;63.78
63493;BME280;49638;47.526;10.028;2023-02-22T00:45:54;91517.16;;;3.97;64.41
63493;BME280;49638;47.526;10.028;2023-02-22T00:48:56;91519.34;;;4.00;64.41
63493;BME280;49638;47.526;10.028;2023-02-22T00:51:56;91516.72;;;4.07;63.87
63493;BME280;49638;47.526;10.028;2023-02-22T00:54:56;91515.88;;;4.13;63.31
63493;BME280;49638;47.526;10.028;2023-02-22T00:57:57;91506.59;;;4.17;63.01
63493;BME280;49638;47.526;10.028;2023-02-22T01:00:58;91515.22;;;4.24;62.60
63493;BME280;49638;47.526;10.028;2023-02-22T01:03:58;91511.59;;;4.25;62.50
63493;BME280;49638;47.526;10.028;2023-02-22T01:06:58;91500.31;;;4.24;61.82
63493;BME280;49638;47.526;10.028;2023-02-22T01:10:00;91505.75;;;4.23;63.03
63493;BME280;49638;47.526;10.028;2023-02-22T01:13:00;91501.19;;;4.12;63.08
63493;BME280;49638;47.526;10.028;2023-02-22T01:16:00;91505.66;;;4.05;64.30
63493;BME280;49638;47.526;10.028;2023-02-22T01:19:02;91504.69;;;3.99;63.52
63493;BME280;49638;47.526;10.028;2023-02-22T01:22:02;91506.25;;;4.07;62.94
63493;BME280;49638;47.526;10.028;2023-02-22T01:25:04;91506.22;;;4.13;63.23
63493;BME280;49638;47.526;10.028;2023-02-22T01:28:06;91497.53;;;4.19;62.95
63493;BME280;49638;47.526;10.028;2023-02-22T01:31:06;91508.81;;;4.13;64.66
63493;BME280;49638;47.526;10.028;2023-02-22T01:34:06;91504.25;;;4.02;64.63
63493;BME280;49638;47.526;10.028;2023-02-22T01:37:08;91498.66;;;3.98;64.96
63493;BME280;49638;47.526;10.028;2023-02-22T01:40:08;91491.78;;;4.04;63.47
63493;BME280;49638;47.526;10.028;2023-02-22T01:43:29;91490.94;;;4.10;63.15
63493;BME280;49638;47.526;10.028;2023-02-22T01:46:30;91483.31;;;4.09;63.10
63493;BME280;49638;47.526;10.028;2023-02-22T01:49:41;91480.06;;;4.13;62.79
63493;BME280;49638;47.526;10.028;2023-02-22T01:52:43;91481.03;;;4.19;63.05
63493;BME280;49638;47.526;10.028;2023-02-22T01:55:44;91474.59;;;4.21;62.07
63493;BME280;49638;47.526;10.028;2023-02-22T01:58:49;91472.78;;;4.22;62.48
63493;BME280;49638;47.526;10.028;2023-02-22T02:01:50;91463.56;;;4.13;62.89
63493;BME280;49638;47.526;10.028;2023-02-22T02:04:50;91463.16;;;4.16;62.17
63493;BME280;49638;47.526;10.028;2023-02-22T02:07:52;91462.31;;;4.22;61.71
63493;BME280;49638;47.526;10.028;2023-02-22T02:10:53;91463.56;;;4.13;63.23
63493;BME280;49638;47.526;10.028;2023-02-22T02:13:55;91456.03;;;3.98;63.41
63493;BME280;49638;47.526;10.028;2023-02-22T02:16:56;91464.69;;;3.92;63.30
63493;BME280;49638;47.526;10.028;2023-02-22T02:29:58;91445.16;;;4.01;62.59
63493;BME280;49638;47.526;10.028;2023-02-22T02:36:24;91438.47;;;4.05;61.87
63493;BME280;49638;47.526;10.028;2023-02-22T02:39:29;91442.31;;;4.02;62.40
63493;BME280;49638;47.526;10.028;2023-02-22T02:42:35;91441.31;;;3.97;62.11
63493;BME280;49638;47.526;10.028;2023-02-22T02:45:43;91432.16;;;3.88;61.88
63493;BME280;49638;47.526;10.028;2023-02-22T02:48:45;91433.13;;;3.87;62.61
63493;BME280;49638;47.526;10.028;2023-02-22T02:51:49;91429.53;;;3.88;61.95
63493;BME280;49638;47.526;10.028;2023-02-22T02:54:51;91424.88;;;3.90;62.64
63493;BME280;49638;47.526;10.028;2023-02-22T02:57:52;91421.09;;;3.86;62.63
63493;BME280;49638;47.526;10.028;2023-02-22T03:00:53;91421.50;;;3.83;63.40
63493;BME280;49638;47.526;10.028;2023-02-22T03:13:28;91420.94;;;3.81;63.03
63493;BME280;49638;47.526;10.028;2023-02-22T03:16:31;91418.69;;;3.84;61.25
63493;BME280;49638;47.526;10.028;2023-02-22T03:19:37;91423.09;;;3.84;62.38
63493;BME280;49638;47.526;10.028;2023-02-22T03:22:41;91421.34;;;3.77;62.38
63493;BME280;49638;47.526;10.028;2023-02-22T03:25:47;91416.28;;;3.83;60.81
63493;BME280;49638;47.526;10.028;2023-02-22T03:28:50;91413.25;;;3.86;61.38
63493;BME280;49638;47.526;10.028;2023-02-22T03:31:54;91409.59;;;3.87;60.34
63493;BME280;49638;47.526;10.028;2023-02-22T03:35:02;91407.00;;;3.87;61.68
63493;BME280;49638;47.526;10.028;2023-02-22T03:38:06;91407.44;;;3.77;63.01
63493;BME280;49638;47.526;10.028;2023-02-22T03:41:08;91398.84;;;3.70;62.31
63493;BME280;49638;47.526;10.028;2023-02-22T03:44:12;91400.66;;;3.69;62.52
63493;BME280;49638;47.526;10.028;2023-02-22T03:47:15;91401.06;;;3.66;62.77
63493;BME280;49638;47.526;10.028;2023-02-22T03:50:21;91398.47;;;3.66;62.65
63493;BME280;49638;47.526;10.028;2023-02-22T03:53:25;91400.66;;;3.69;62.33
63493;BME280;49638;47.526;10.028;2023-02-22T03:56:27;91402.94;;;3.59;64.07
63493;BME280;49638;47.526;10.028;2023-02-22T03:59:34;91405.59;;;3.46;63.12
63493;BME280;49638;47.526;10.028;2023-02-22T04:02:35;91398.38;;;3.48;62.32
63493;BME280;49638;47.526;10.028;2023-02-22T04:05:35;91400.97;;;3.48;63.02
63493;BME280;49638;47.526;10.028;2023-02-22T04:08:36;91397.97;;;3.44;63.34
63493;BME280;49638;47.526;10.028;2023-02-22T04:11:36;91401.63;;;3.43;63.99
63493;BME280;49638;47.526;10.028;2023-02-22T04:14:36;91401.63;;;3.37;65.21
63493;BME280;49638;47.526;10.028;2023-02-22T04:17:36;91400.25;;;3.27;64.66
63493;BME280;49638;47.526;10.028;2023-02-22T04:20:37;91391.63;;;3.27;64.24
63493;BME280;49638;47.526;10.028;2023-02-22T04:23:37;91401.66;;;3.30;63.84
63493;BME280;49638;47.526;10.028;2023-02-22T04:26:37;91389.00;;;3.34;63.54
63493;BME280;49638;47.526;10.028;2023-02-22T04:29:37;91388.34;;;3.38;64.05
63493;BME280;49638;47.526;10.028;2023-02-22T04:32:37;91392.97;;;3.36;63.58
63493;BME280;49638;47.526;10.028;2023-02-22T04:35:38;91389.81;;;3.27;65.27
63493;BME280;49638;47.526;10.028;2023-02-22T04:38:38;91382.81;;;3.21;65.38
63493;BME280;49638;47.526;10.028;2023-02-22T04:41:39;91381.63;;;3.17;65.31
63493;BME280;49638;47.526;10.028;2023-02-22T04:44:39;91376.41;;;3.17;65.09
63493;BME280;49638;47.526;10.028;2023-02-22T04:47:39;91374.81;;;3.10;66.04
63493;BME280;49638;47.526;10.028;2023-02-22T04:50:39;91383.09;;;3.00;65.54
63493;BME280;49638;47.526;10.028;2023-02-22T04:53:40;91374.44;;;3.06;64.82
63493;BME280;49638;47.526;10.028;2023-02-22T04:56:40;91380.44;;;3.06;65.63
63493;BME280;49638;47.526;10.028;2023-02-22T04:59:40;91378.81;;;3.12;64.33
63493;BME280;49638;47.526;10.028;2023-02-22T05:02:40;91381.66;;;3.04;65.06
63493;BME280;49638;47.526;10.028;2023-02-22T05:05:40;91374.44;;;3.06;64.82
63493;BME280;49638;47.526;10.028;2023-02-22T05:08:40;91372.00;;;3.11;62.52
63493;BME280;49638;47.526;10.028;2023-02-22T05:11:41;91373.97;;;3.16;61.81
63493;BME280;49638;47.526;10.028;2023-02-22T05:14:41;91369.13;;;3.19;62.88
63493;BME280;49638;47.526;10.028;2023-02-22T05:17:43;91371.75;;;3.19;63.82
63493;BME280;49638;47.526;10.028;2023-02-22T05:20:44;91372.38;;;3.15;64.05
63493;BME280;49638;47.526;10.028;2023-02-22T05:23:44;91368.19;;;3.14;64.22
63493;BME280;49638;47.526;10.028;2023-02-22T05:26:44;91369.38;;;3.11;64.22
63493;BME280;49638;47.526;10.028;2023-02-22T05:29:45;91370.81;;;3.07;63.84
63493;BME280;49638;47.526;10.028;2023-02-22T05:32:45;91367.59;;;3.05;65.04
63493;BME280;49638;47.526;10.028;2023-02-22T05:35:45;91362.38;;;3.05;64.72
63493;BME280;49638;47.526;10.028;2023-02-22T05:38:45;91368.59;;;3.04;65.33
63493;BME280;49638;47.526;10.028;2023-02-22T05:41:45;91359.34;;;3.08;63.96
63493;BME280;49638;47.526;10.028;2023-02-22T05:44:46;91359.53;;;3.13;63.78
63493;BME280;49638;47.526;10.028;2023-02-22T05:47:46;91359.97;;;3.10;64.50
63493;BME280;49638;47.526;10.028;2023-02-22T05:50:46;91365.38;;;3.02;65.33
63493;BME280;49638;47.526;10.028;2023-02-22T05:53:48;91364.03;;;2.93;64.96
63493;BME280;49638;47.526;10.028;2023-02-22T05:56:51;91364.41;;;2.96;63.80
63493;BME280;49638;47.526;10.028;2023-02-22T05:59:51;91368.59;;;3.04;63.42
63493;BME280;49638;47.526;10.028;2023-02-22T06:02:55;91371.81;;;3.13;63.10
63493;BME280;49638;47.526;10.028;2023-02-22T06:05:55;91368.75;;;3.16;62.10
63493;BME280;49638;47.526;10.028;2023-02-22T06:08:56;91370.75;;;3.20;62.47
63493;BME280;49638;47.526;10.028;2023-02-22T06:11:57;91372.34;;;3.21;63.21
63493;BME280;49638;47.526;10.028;2023-02-22T06:14:57;91368.72;;;3.22;62.29
63493;BME280;49638;47.526;10.028;2023-02-22T06:17:57;91376.38;;;3.24;62.42
63493;BME280;49638;47.526;10.028;2023-02-22T06:20:58;91377.97;;;3.25;63.07
63493;BME280;49638;47.526;10.028;2023-02-22T06:23:58;91381.78;;;3.22;63.27
63493;BME280;49638;47.526;10.028;2023-02-22T06:27:00;91390.63;;;3.21;63.06
63493;BME280;49638;47.526;10.028;2023-02-22T06:30:01;91397.66;;;3.27;61.68
63493;BME280;49638;47.526;10.028;2023-02-22T06:33:01;91395.19;;;3.32;61.06
63493;BME280;49638;47.526;10.028;2023-02-22T06:36:01;91405.25;;;3.36;62.50
63493;BME280;49638;47.526;10.028;2023-02-22T06:39:01;91409.63;;;3.42;63.28
63493;BME280;49638;47.526;10.028;2023-02-22T06:42:02;91406.44;;;3.40;64.50
63493;BME280;49638;47.526;10.028;2023-02-22T06:45:02;91409.44;;;3.43;63.33
63493;BME280;49638;47.526;10.028;2023-02-22T06:48:03;91412.59;;;3.52;62.98
63493;BME280;49638;47.526;10.028;2023-02-22T06:51:03;91404.34;;;3.55;62.28
63493;BME280;49638;47.526;10.028;2023-02-22T06:54:03;91406.34;;;3.60;62.88
63493;BME280;49638;47.526;10.028;2023-02-22T06:57:05;91409.28;;;3.70;62.88
63493;BME280;49638;47.526;10.028;2023-02-22T07:00:05;91412.28;;;3.73;62.54
63493;BME280;49638;47.526;10.028;2023-02-22T07:03:05;91409.59;;;3.87;62.41
63493;BME280;49638;47.526;10.028;2023-02-22T07:06:06;91409.13;;;4.03;62.87
63493;BME280;49638;47.526;10.028;2023-02-22T07:09:06;91413.47;;;4.16;62.47
63493;BME280;49638;47.526;10.028;2023-02-22T07:12:06;91411.56;;;4.30;62.08
63493;BME280;49638;47.526;10.028;2023-02-22T07:15:07;91409.84;;;4.42;61.41
63493;BME280;49638;47.526;10.028;2023-02-22T07:18:07;91404.50;;;4.55;60.75
63493;BME280;49638;47.526;10.028;2023-02-22T07:21:07;91407.44;;;4.65;62.72
63493;BME280;49638;47.526;10.028;2023-02-22T07:24:07;91406.38;;;4.73;63.06
63493;BME280;49638;47.526;10.028;2023-02-22T07:27:07;91414.38;;;4.78;63.62
63493;BME280;49638;47.526;10.028;2023-02-22T07:30:19;91412.66;;;4.90;62.00
63493;BME280;49638;47.526;10.028;2023-02-22T07:33:19;91408.88;;;5.05;61.80
63493;BME280;49638;47.526;10.028;2023-02-22T07:36:19;91415.22;;;5.15;61.65
63493;BME280;49638;47.526;10.028;2023-02-22T07:39:19;91407.81;;;5.31;62.47
63493;BME280;49638;47.526;10.028;2023-02-22T07:42:20;91401.69;;;5.37;62.22
63493;BME280;49638;47.526;10.028;2023-02-22T07:45:20;91408.00;;;5.48;62.08
63493;BME280;49638;47.526;10.028;2023-02-22T07:48:21;91401.44;;;5.57;61.86
63493;BME280;49638;47.526;10.028;2023-02-22T07:51:22;91405.38;;;5.66;60.26
63493;BME280;49638;47.526;10.028;2023-02-22T07:54:22;91404.91;;;5.69;64.51
63493;BME280;49638;47.526;10.028;2023-02-22T07:57:22;91404.41;;;5.79;63.53
63493;BME280;49638;47.526;10.028;2023-02-22T08:00:27;91403.53;;;5.85;61.77
63493;BME280;49638;47.526;10.028;2023-02-22T08:03:29;91398.78;;;5.93;62.82
63493;BME280;49638;47.526;10.028;2023-02-22T08:06:29;91400.44;;;6.06;59.23
63493;BME280;49638;47.526;10.028;2023-02-22T08:09:30;91385.28;;;6.20;57.81
63493;BME280;49638;47.526;10.028;2023-02-22T08:12:31;91391.94;;;6.34;60.78
63493;BME280;49638;47.526;10.028;2023-02-22T08:15:32;91391.28;;;6.51;61.32
63493;BME280;49638;47.526;10.028;2023-02-22T08:18:33;91391.41;;;6.68;60.47
63493;BME280;49638;47.526;10.028;2023-02-22T08:21:34;91387.09;;;6.85;59.78
63493;BME280;49638;47.526;10.028;2023-02-22T08:24:34;91383.19;;;6.99;60.68
63493;BME280;49638;47.526;10.028;2023-02-22T08:27:34;91381.94;;;7.14;59.82
63493;BME280;49638;47.526;10.028;2023-02-22T08:30:35;91380.09;;;7.26;61.23
63493;BME280;49638;47.526;10.028;2023-02-22T08:33:35;91380.88;;;7.38;60.54
63493;BME280;49638;47.526;10.028;2023-02-22T08:36:40;91384.75;;;7.47;60.77
63493;BME280;49638;47.526;10.028;2023-02-22T08:39:40;91389.31;;;7.52;58.75
63493;BME280;49638;47.526;10.028;2023-02-22T08:42:40;91385.03;;;7.63;58.86
63493;BME280;49638;47.526;10.028;2023-02-22T08:45:40;91378.59;;;7.70;55.78
63493;BME280;49638;47.526;10.028;2023-02-22T08:48:50;91385.91;;;7.80;55.62
63493;BME280;49638;47.526;10.028;2023-02-22T08:51:51;91378.19;;;7.90;54.86
63493;BME280;49638;47.526;10.028;2023-02-22T08:54:51;91381.25;;;7.99;53.75
63493;BME280;49638;47.526;10.028;2023-02-22T08:57:51;91390.50;;;8.01;53.70
63493;BME280;49638;47.526;10.028;2023-02-22T09:00:52;91378.25;;;8.07;53.61
63493;BME280;49638;47.526;10.028;2023-02-22T09:03:52;91376.59;;;8.18;52.97
63493;BME280;49638;47.526;10.028;2023-02-22T09:06:54;91376.75;;;8.28;54.30
63493;BME280;49638;47.526;10.028;2023-02-22T09:09:55;91377.97;;;8.37;53.92
63493;BME280;49638;47.526;10.028;2023-02-22T09:12:55;91374.97;;;8.45;53.94
63493;BME280;49638;47.526;10.028;2023-02-22T09:15:55;91372.19;;;8.52;52.71
63493;BME280;49638;47.526;10.028;2023-02-22T09:18:56;91370.44;;;8.58;52.77
63493;BME280;49638;47.526;10.028;2023-02-22T09:21:56;91370.75;;;8.61;50.46
63493;BME280;49638;47.526;10.028;2023-02-22T09:24:57;91359.44;;;8.61;48.44
63493;BME280;49638;47.526;10.028;2023-02-22T09:27:57;91356.63;;;8.67;50.11
63493;BME280;49638;47.526;10.028;2023-02-22T09:30:57;91352.00;;;8.74;50.83
63493;BME280;49638;47.526;10.028;2023-02-22T09:33:57;91363.75;;;8.84;50.56
63493;BME280;49638;47.526;10.028;2023-02-22T09:36:58;91354.84;;;8.90;49.25
63493;BME280;49638;47.526;10.028;2023-02-22T09:39:58;91356.03;;;8.99;50.72
63493;BME280;49638;47.526;10.028;2023-02-22T09:43:17;91350.38;;;9.07;50.27
63493;BME280;49638;47.526;10.028;2023-02-22T09:46:30;91354.13;;;9.11;49.04
63493;BME280;49638;47.526;10.028;2023-02-22T09:49:35;91359.94;;;9.13;49.40
63493;BME280;49638;47.526;10.028;2023-02-22T09:56:17;91356.22;;;9.31;48.02
63493;BME280;49638;47.526;10.028;2023-02-22T09:59:21;91352.06;;;9.35;48.96
63493;BME280;49638;47.526;10.028;2023-02-22T10:02:27;91352.94;;;9.41;48.36
63493;BME280;49638;47.526;10.028;2023-02-22T10:05:33;91356.72;;;9.50;50.00
63493;BME280;49638;47.526;10.028;2023-02-22T10:08:36;91348.94;;;9.60;49.03
63493;BME280;49638;47.526;10.028;2023-02-22T10:11:47;91349.06;;;9.70;48.56
63493;BME280;49638;47.526;10.028;2023-02-22T10:20:55;91350.44;;;10.00;44.95
63493;BME280;49638;47.526;10.028;2023-02-22T10:26:59;91348.19;;;10.14;45.25
63493;BME280;49638;47.526;10.028;2023-02-22T10:30:02;91353.00;;;10.17;44.82
63493;BME280;49638;47.526;10.028;2023-02-22T10:33:08;91362.25;;;10.19;46.13
63493;BME280;49638;47.526;10.028;2023-02-22T10:36:15;91357.00;;;10.25;45.08
63493;BME280;49638;47.526;10.028;2023-02-22T10:39:23;91352.13;;;10.33;43.05
63493;BME280;49638;47.526;10.028;2023-02-22T10:42:26;91338.91;;;10.33;39.77
63493;BME280;49638;47.526;10.028;2023-02-22T10:45:28;91349.56;;;10.44;41.66
63493;BME280;49638;47.526;10.028;2023-02-22T10:48:31;91350.94;;;10.46;40.34
63493;BME280;49638;47.526;10.028;2023-02-22T10:51:34;91340.69;;;10.55;41.45
63493;BME280;49638;47.526;10.028;2023-02-22T10:54:38;91346.56;;;10.62;41.46
63493;BME280;49638;47.526;10.028;2023-02-22T10:57:40;91346.69;;;10.77;42.84
63493;BME280;49638;47.526;10.028;2023-02-22T11:00:41;91342.00;;;10.89;40.02
63493;BME280;49638;47.526;10.028;2023-02-22T11:03:41;91344.19;;;10.98;40.04
63493;BME280;49638;47.526;10.028;2023-02-22T11:06:45;91340.50;;;11.04;42.25
63493;BME280;49638;47.526;10.028;2023-02-22T11:09:48;91338.97;;;11.13;41.80
63493;BME280;49638;47.526;10.028;2023-02-22T11:12:49;91332.97;;;11.23;42.44
63493;BME280;49638;47.526;10.028;2023-02-22T11:15:50;91330.63;;;11.31;43.39
63493;BME280;49638;47.526;10.028;2023-02-22T11:18:50;91323.78;;;11.35;43.03
63493;BME280;49638;47.526;10.028;2023-02-22T11:22:07;91324.06;;;11.39;45.23
63493;BME280;49638;47.526;10.028;2023-02-22T11:25:16;91321.41;;;11.39;43.70
63493;BME280;49638;47.526;10.028;2023-02-22T11:28:20;91321.19;;;11.46;46.20
63493;BME280;49638;47.526;10.028;2023-02-22T11:31:29;91320.41;;;11.50;46.06
63493;BME280;49638;47.526;10.028;2023-02-22T11:34:37;91307.69;;;11.47;45.73
63493;BME280;49638;47.526;10.028;2023-02-22T11:37:38;91308.75;;;11.46;43.13
63493;BME280;49638;47.526;10.028;2023-02-22T11:40:38;91306.88;;;11.47;43.29
63493;BME280;49638;47.526;10.028;2023-02-22T11:43:39;91302.66;;;11.46;44.14
63493;BME280;49638;47.526;10.028;2023-02-22T11:46:40;91304.25;;;11.47;44.42
63493;BME280;49638;47.526;10.028;2023-02-22T11:49:42;91295.75;;;11.40;43.02
63493;BME280;49638;47.526;10.028;2023-02-22T11:52:44;91286.47;;;11.37;43.31
63493;BME280;49638;47.526;10.028;2023-02-22T11:56:10;91294.97;;;11.39;44.20
63493;BME280;49638;47.526;10.028;2023-02-22T11:59:29;91293.66;;;11.42;45.39
63493;BME280;49638;47.526;10.028;2023-02-22T12:04:38;91279.88;;;11.40;47.92
63493;BME280;49638;47.526;10.028;2023-02-22T12:14:40;91278.09;;;11.55;48.21
63493;BME280;49638;47.526;10.028;2023-02-22T12:21:11;91274.66;;;11.60;54.61
63493;BME280;49638;47.526;10.028;2023-02-22T12:24:18;91271.78;;;11.67;54.68
63493;BME280;49638;47.526;10.028;2023-02-22T12:27:30;91269.94;;;11.72;46.95
63493;BME280;49638;47.526;10.028;2023-02-22T12:30:39;91269.69;;;11.79;53.31
63493;BME280;49638;47.526;10.028;2023-02-22T12:37:04;91266.28;;;11.89;49.41
63493;BME280;49638;47.526;10.028;2023-02-22T12:43:28;91257.03;;;11.86;49.05
63493;BME280;49638;47.526;10.028;2023-02-22T12:46:36;91263.13;;;11.87;51.61
63493;BME280;49638;47.526;10.028;2023-02-22T12:49:50;91258.34;;;11.89;49.44
63493;BME280;49638;47.526;10.028;2023-02-22T12:53:03;91247.69;;;11.78;51.27
63493;BME280;49638;47.526;10.028;2023-02-22T12:56:14;91258.31;;;11.83;53.77
63493;BME280;49638;47.526;10.028;2023-02-22T13:02:56;91255.91;;;11.77;49.50
63493;BME280;49638;47.526;10.028;2023-02-22T13:12:20;91248.72;;;11.67;52.52
63493;BME280;49638;47.526;10.028;2023-02-22T13:15:32;91254.31;;;11.66;54.31
63493;BME280;49638;47.526;10.028;2023-02-22T13:18:52;91256.91;;;11.60;51.96
63493;BME280;49638;47.526;10.028;2023-02-22T13:22:01;91250.28;;;11.58;54.06
63493;BME280;49638;47.526;10.028;2023-02-22T13:25:35;91251.91;;;11.59;52.39
63493;BME280;49638;47.526;10.028;2023-02-22T13:28:38;91247.41;;;11.59;54.83
63493;BME280;49638;47.526;10.028;2023-02-22T13:32:05;91250.28;;;11.58;53.34
63493;BME280;49638;47.526;10.028;2023-02-22T13:35:28;91248.97;;;11.55;52.36
63493;BME280;49638;47.526;10.028;2023-02-22T13:41:54;91238.59;;;11.44;54.16
63493;BME280;49638;47.526;10.028;2023-02-22T13:52:13;91242.78;;;11.29;54.79
63493;BME280;49638;47.526;10.028;2023-02-22T13:55:18;91254.41;;;11.23;56.20
63493;BME280;49638;47.526;10.028;2023-02-22T13:58:21;91253.38;;;11.24;56.22
63493;BME280;49638;47.526;10.028;2023-02-22T14:04:42;91255.13;;;11.13;56.38
63493;BME280;49638;47.526;10.028;2023-02-22T14:07:47;91256.97;;;11.08;55.90
63493;BME280;49638;47.526;10.028;2023-02-22T14:17:21;91254.75;;;10.89;56.58
63493;BME280;49638;47.526;10.028;2023-02-22T14:20:28;91264.75;;;10.82;57.21
63493;BME280;49638;47.526;10.028;2023-02-22T14:23:38;91257.59;;;10.78;57.48
63493;BME280;49638;47.526;10.028;2023-02-22T14:26:57;91259.91;;;10.69;57.55
63493;BME280;49638;47.526;10.028;2023-02-22T14:29:58;91264.09;;;10.60;58.15
63493;BME280;49638;47.526;10.028;2023-02-22T14:32:59;91256.91;;;10.50;58.31
63493;BME280;49638;47.526;10.028;2023-02-22T14:36:02;91266.69;;;10.50;58.53
63493;BME280;49638;47.526;10.028;2023-02-22T14:39:23;91275.63;;;10.49;58.03
63493;BME280;49638;47.526;10.028;2023-02-22T14:42:31;91263.47;;;10.48;58.52
63493;BME280;49638;47.526;10.028;2023-02-22T14:45:33;91272.47;;;10.52;58.74
63493;BME280;49638;47.526;10.028;2023-02-22T14:48:38;91274.13;;;10.58;58.76
63493;BME280;49638;47.526;10.028;2023-02-22T14:51:48;91263.84;;;10.61;58.31
63493;BME280;49638;47.526;10.028;2023-02-22T14:54:58;91272.34;;;10.69;57.98
63493;BME280;49638;47.526;10.028;2023-02-22T14:58:17;91260.72;;;10.70;57.31
63493;BME280;49638;47.526;10.028;2023-02-22T15:01:32;91272.69;;;10.77;57.83
63493;BME280;49638;47.526;10.028;2023-02-22T15:04:33;91272.38;;;10.74;58.66
63493;BME280;49638;47.526;10.028;2023-02-22T15:07:33;91267.31;;;10.67;58.59
63493;BME280;49638;47.526;10.028;2023-02-22T15:13:52;91267.25;;;10.57;58.35
63493;BME280;49638;47.526;10.028;2023-02-22T15:16:55;91267.19;;;10.47;59.06
63493;BME280;49638;47.526;10.028;2023-02-22T15:19:56;91270.78;;;10.35;58.74
63493;BME280;49638;47.526;10.028;2023-02-22T15:22:58;91278.66;;;10.30;59.39
63493;BME280;49638;47.526;10.028;2023-02-22T15:25:59;91273.28;;;10.25;59.49
63493;BME280;49638;47.526;10.028;2023-02-22T15:29:00;91276.44;;;10.22;59.65
63493;BME280;49638;47.526;10.028;2023-02-22T15:32:00;91270.88;;;10.18;59.64
63493;BME280;49638;47.526;10.028;2023-02-22T15:35:28;91276.31;;;10.07;60.43
63493;BME280;49638;47.526;10.028;2023-02-22T15:38:29;91274.94;;;9.99;60.30
63493;BME280;49638;47.526;10.028;2023-02-22T15:41:31;91277.31;;;10.01;60.63
63493;BME280;49638;47.526;10.028;2023-02-22T15:44:52;91273.81;;;9.95;60.98
63493;BME280;49638;47.526;10.028;2023-02-22T15:47:54;91273.50;;;9.86;61.26
63493;BME280;49638;47.526;10.028;2023-02-22T15:51:01;91275.28;;;9.81;61.48
63493;BME280;49638;47.526;10.028;2023-02-22T15:54:03;91265.69;;;9.75;61.47
63493;BME280;49638;47.526;10.028;2023-02-22T15:57:08;91276.78;;;9.71;62.03
63493;BME280;49638;47.526;10.028;2023-02-22T16:00:34;91278.75;;;9.59;64.11
63493;BME280;49638;47.526;10.028;2023-02-22T16:03:41;91272.00;;;9.46;62.91
63493;BME280;49638;47.526;10.028;2023-02-22T16:06:46;91279.88;;;9.41;63.18
63493;BME280;49638;47.526;10.028;2023-02-22T16:09:50;91287.72;;;9.36;63.65
63493;BME280;49638;47.526;10.028;2023-02-22T16:13:05;91278.97;;;9.31;64.24
63493;BME280;49638;47.526;10.028;2023-02-22T16:19:38;91278.03;;;9.20;63.70
63493;BME280;49638;47.526;10.028;2023-02-22T16:22:40;91280.59;;;9.15;63.69
63493;BME280;49638;47.526;10.028;2023-02-22T16:25:44;91284.41;;;9.02;64.07
63493;BME280;49638;47.526;10.028;2023-02-22T16:28:51;91291.84;;;8.88;64.79
63493;BME280;49638;47.526;10.028;2023-02-22T16:31:51;91284.06;;;8.76;64.71
63493;BME280;49638;47.526;10.028;2023-02-22T16:34:51;91291.03;;;8.49;65.18
63493;BME280;49638;47.526;10.028;2023-02-22T16:40:59;91288.78;;;8.24;65.63
63493;BME280;49638;47.526;10.028;2023-02-22T16:44:00;91270.75;;;7.99;65.80
63493;BME280;49638;47.526;10.028;2023-02-22T16:47:00;91298.31;;;7.96;66.13
63493;BME280;49638;47.526;10.028;2023-02-22T16:50:01;91297.72;;;7.77;66.63
63493;BME280;49638;47.526;10.028;2023-02-22T16:53:01;91299.69;;;7.70;66.72
63493;BME280;49638;47.526;10.028;2023-02-22T16:56:04;91298.97;;;7.58;67.60
63493;BME280;49638;47.526;10.028;2023-02-22T16:59:11;91299.78;;;7.47;67.55
63493;BME280;49638;47.526;10.028;2023-02-22T17:02:13;91308.06;;;7.39;67.22
63493;BME280;49638;47.526;10.028;2023-02-22T17:05:17;91308.84;;;7.39;67.26
63493;BME280;49638;47.526;10.028;2023-02-22T17:08:17;91313.44;;;7.32;67.34
63493;BME280;49638;47.526;10.028;2023-02-22T17:11:17;91310.88;;;7.20;67.21
63493;BME280;49638;47.526;10.028;2023-02-22T17:14:21;91321.72;;;7.24;67.42
63493;BME280;49638;47.526;10.028;2023-02-22T17:17:22;91322.06;;;7.16;67.21
63493;BME280;49638;47.526;10.028;2023-02-22T17:20:23;91321.38;;;7.08;67.30
63493;BME280;49638;47.526;10.028;2023-02-22T17:23:29;91315.34;;;6.96;67.35
63493;BME280;49638;47.526;10.028;2023-02-22T17:26:29;91326.34;;;6.93;67.15
63493;BME280;49638;47.526;10.028;2023-02-22T17:29:29;91332.03;;;6.90;67.31
63493;BME280;49638;47.526;10.028;2023-02-22T17:32:30;91334.53;;;6.85;67.23
63493;BME280;49638;47.526;10.028;2023-02-22T17:35:33;91330.09;;;6.85;67.28
63493;BME280;49638;47.526;10.028;2023-02-22T17:38:34;91343.22;;;6.85;67.42
63493;BME280;49638;47.526;10.028;2023-02-22T17:41:34;91344.97;;;6.80;67.34